Time;durP1;ratioP1;P1;durP2;ratioP2;P2;SDS_P1;SDS_P2;PMS_P1;PMS_P2;Temp;Humidity;BMP_temperature;BMP_pressure;BME280_temperature;BME280_humidity;BME280_pressure;Samples;Min_cycle;Max_cycle;Signal;HPM_P1;HPM_P2
2023/07/27 00:00:26;;;;;;;0.00;0.00;;;15.20;99.90;;;;;;5091147;28;20195;-66
2023/07/27 00:02:52;;;;;;;0.00;0.00;;;15.20;99.90;;;;;;5091074;28;20526;-66
2023/07/27 00:05:17;;;;;;;0.00;0.00;;;15.20;99.90;;;;;;5091082;28;20219;-66
2023/07/27 00:07:43;;;;;;;0.00;0.00;;;15.20;99.90;;;;;;5090753;28;20229;-66
2023/07/27 00:10:08;;;;;;;0.00;0.00;;;15.30;99.90;;;;;;5090773;28;20296;-66
2023/07/27 00:12:34;;;;;;;0.00;0.00;;;15.30;99.90;;;;;;5090826;28;20535;-66
2023/07/27 00:14:59;;;;;;;0.10;0.10;;;15.30;99.90;;;;;;5091077;28;20272;-66
2023/07/27 00:17:25;;;;;;;0.00;0.00;;;15.30;99.90;;;;;;5089379;28;20199;-66
2023/07/27 00:19:50;;;;;;;0.00;0.00;;;15.40;99.90;;;;;;5074582;28;20195;-66
2023/07/27 00:22:16;;;;;;;0.00;0.00;;;15.40;99.90;;;;;;5090964;28;20643;-66
2023/07/27 00:24:41;;;;;;;0.00;0.00;;;15.40;99.90;;;;;;5090933;28;20184;-66
2023/07/27 00:27:07;;;;;;;0.00;0.00;;;15.30;99.90;;;;;;5090541;28;20541;-66
2023/07/27 00:29:33;;;;;;;0.00;0.00;;;15.30;99.90;;;;;;5090518;28;20704;-66
2023/07/27 00:31:58;;;;;;;0.00;0.00;;;15.30;99.90;;;;;;5089516;28;20168;-66
2023/07/27 00:34:24;;;;;;;0.00;0.00;;;15.30;99.90;;;;;;5089924;28;20212;-66
2023/07/27 00:36:50;;;;;;;0.00;0.00;;;15.20;99.90;;;;;;5090384;28;20550;-66
2023/07/27 00:39:15;;;;;;;0.00;0.00;;;15.20;99.90;;;;;;5088727;28;20183;-66
2023/07/27 00:41:42;;;;;;;0.00;0.00;;;15.20;99.90;;;;;;5089866;28;20573;-66
2023/07/27 00:44:08;;;;;;;0.00;0.00;;;15.20;99.90;;;;;;5089382;28;20560;-66
2023/07/27 00:46:36;;;;;;;0.00;0.00;;;15.20;99.90;;;;;;5089536;28;20183;-66
2023/07/27 00:49:02;;;;;;;0.00;0.00;;;15.20;99.90;;;;;;5086617;28;20180;-66
2023/07/27 00:51:33;;;;;;;0.00;0.00;;;15.10;99.90;;;;;;5087944;28;20184;-66
2023/07/27 00:53:58;;;;;;;0.00;0.00;;;15.10;99.90;;;;;;5081801;28;20216;-66
2023/07/27 00:56:24;;;;;;;0.00;0.00;;;15.10;99.90;;;;;;5090215;28;20188;-66
2023/07/27 00:58:50;;;;;;;0.00;0.00;;;15.10;99.90;;;;;;5090065;28;20237;-66
2023/07/27 01:01:16;;;;;;;0.00;0.00;;;15.10;99.90;;;;;;5090318;28;20590;-66
2023/07/27 01:03:42;;;;;;;0.00;0.00;;;15.10;99.90;;;;;;5090377;28;20176;-66
2023/07/27 01:06:07;;;;;;;0.00;0.00;;;15.10;99.90;;;;;;5090223;28;20241;-66
2023/07/27 01:08:33;;;;;;;0.00;0.00;;;15.10;99.90;;;;;;5090469;28;20180;-66
2023/07/27 01:11:22;;;;;;;0.00;0.00;;;15.10;99.90;;;;;;5090347;28;20198;-66
2023/07/27 01:13:55;;;;;;;0.00;0.00;;;15.10;99.90;;;;;;5090231;28;20212;-66
2023/07/27 01:16:30;;;;;;;0.00;0.00;;;15.00;99.90;;;;;;5090312;28;20188;-66
2023/07/27 01:19:33;;;;;;;0.00;0.00;;;15.00;99.90;;;;;;5089221;28;20183;-66
2023/07/27 01:22:31;;;;;;;0.00;0.00;;;15.00;99.90;;;;;;5090597;28;20179;-66
2023/07/27 01:25:18;;;;;;;0.00;0.00;;;15.00;99.90;;;;;;5094008;28;20263;-66
2023/07/27 01:27:49;;;;;;;0.00;0.00;;;15.00;99.90;;;;;;5093770;28;20219;-66
2023/07/27 01:30:26;;;;;;;0.00;0.00;;;15.00;99.90;;;;;;5094069;28;20251;-66
2023/07/27 01:33:05;;;;;;;0.10;0.10;;;14.90;99.90;;;;;;5093544;28;20191;-66
2023/07/27 01:36:03;;;;;;;0.00;0.00;;;14.90;99.90;;;;;;5092299;28;20184;-66
2023/07/27 01:38:30;;;;;;;0.20;0.20;;;14.90;99.90;;;;;;5091827;28;20610;-66
2023/07/27 01:40:57;;;;;;;0.00;0.00;;;14.80;99.90;;;;;;5093320;28;20176;-66
2023/07/27 01:43:24;;;;;;;0.00;0.00;;;14.80;99.90;;;;;;5093469;28;20183;-66
2023/07/27 01:45:51;;;;;;;0.00;0.00;;;14.70;99.90;;;;;;5093416;28;20188;-66
2023/07/27 01:48:17;;;;;;;0.00;0.00;;;14.70;99.90;;;;;;5095421;28;20196;-66
2023/07/27 01:50:44;;;;;;;0.00;0.00;;;14.70;99.90;;;;;;5092066;28;20212;-66
2023/07/27 01:53:11;;;;;;;0.00;0.00;;;14.70;99.90;;;;;;5092791;28;20199;-66
2023/07/27 01:55:38;;;;;;;0.00;0.00;;;14.60;99.90;;;;;;5093020;28;20182;-66
2023/07/27 01:58:04;;;;;;;0.00;0.00;;;14.60;99.90;;;;;;5093174;28;20180;-66
2023/07/27 02:00:31;;;;;;;0.00;0.00;;;14.50;99.90;;;;;;5093106;28;20176;-66
2023/07/27 02:02:57;;;;;;;0.00;0.00;;;14.50;99.90;;;;;;5092063;28;20188;-66
2023/07/27 02:05:23;;;;;;;0.20;0.10;;;14.50;99.90;;;;;;5087894;28;20208;-66
2023/07/27 02:07:49;;;;;;;0.00;0.00;;;14.50;99.90;;;;;;5090726;28;20169;-66
2023/07/27 02:10:17;;;;;;;0.00;0.00;;;14.50;99.90;;;;;;5091123;28;20194;-66
2023/07/27 02:12:50;;;;;;;0.00;0.00;;;14.40;99.90;;;;;;5093419;28;20172;-66
2023/07/27 02:15:25;;;;;;;0.00;0.00;;;14.40;99.90;;;;;;5092748;28;20196;-66
2023/07/27 02:17:58;;;;;;;0.00;0.00;;;14.40;99.90;;;;;;5092855;28;20268;-66
2023/07/27 02:20:28;;;;;;;0.00;0.00;;;14.30;99.90;;;;;;5092586;28;20187;-66
2023/07/27 02:22:56;;;;;;;0.00;0.00;;;14.30;99.90;;;;;;5092972;28;20259;-66
2023/07/27 02:25:22;;;;;;;0.00;0.00;;;14.30;99.90;;;;;;5092186;28;20229;-66
2023/07/27 02:27:47;;;;;;;0.00;0.00;;;14.30;99.90;;;;;;5092300;28;20232;-66
2023/07/27 02:30:13;;;;;;;0.00;0.00;;;14.30;99.90;;;;;;5092622;28;20188;-66
2023/07/27 02:32:38;;;;;;;0.00;0.00;;;14.30;99.90;;;;;;5092292;28;20195;-66
2023/07/27 02:35:04;;;;;;;0.00;0.00;;;14.30;99.90;;;;;;5092025;28;20223;-66
2023/07/27 02:37:30;;;;;;;0.00;0.00;;;14.20;99.90;;;;;;5092204;28;20180;-66
2023/07/27 02:39:55;;;;;;;0.00;0.00;;;14.20;99.90;;;;;;5091139;28;20172;-67
2023/07/27 02:42:21;;;;;;;0.00;0.00;;;14.20;99.90;;;;;;5092777;28;20617;-66
2023/07/27 02:44:46;;;;;;;0.00;0.00;;;14.20;99.90;;;;;;5092022;28;20192;-66
2023/07/27 02:47:12;;;;;;;0.00;0.00;;;14.10;99.90;;;;;;5092453;28;20204;-66
2023/07/27 02:49:38;;;;;;;0.00;0.00;;;14.10;99.90;;;;;;5092434;28;20184;-66
2023/07/27 02:52:04;;;;;;;0.00;0.00;;;14.10;99.90;;;;;;5092078;28;20180;-66
2023/07/27 02:54:29;;;;;;;0.00;0.00;;;14.10;99.90;;;;;;5090779;28;20678;-66
2023/07/27 02:56:55;;;;;;;0.00;0.00;;;14.10;99.90;;;;;;5091991;28;20191;-66
2023/07/27 02:59:20;;;;;;;0.00;0.00;;;14.10;99.90;;;;;;5092113;28;20172;-66
2023/07/27 03:01:46;;;;;;;0.00;0.00;;;14.10;99.90;;;;;;5092518;28;20575;-66
2023/07/27 03:04:11;;;;;;;0.00;0.00;;;14.10;99.90;;;;;;5092450;28;20191;-66
2023/07/27 03:06:39;;;;;;;0.00;0.00;;;14.10;99.90;;;;;;5092140;28;20176;-66
2023/07/27 03:09:04;;;;;;;0.00;0.00;;;14.10;99.90;;;;;;5091931;28;20187;-66
2023/07/27 03:11:30;;;;;;;0.00;0.00;;;14.20;99.90;;;;;;5092478;28;20589;-66
2023/07/27 03:13:57;;;;;;;0.00;0.00;;;14.20;99.90;;;;;;5092390;28;20226;-66
2023/07/27 03:16:23;;;;;;;0.00;0.00;;;14.20;99.90;;;;;;5092056;28;20194;-66
2023/07/27 03:18:48;;;;;;;0.00;0.00;;;14.20;99.90;;;;;;5092266;28;20539;-66
2023/07/27 03:21:14;;;;;;;0.00;0.00;;;14.30;99.90;;;;;;5092044;28;20172;-66
2023/07/27 03:23:39;;;;;;;0.00;0.00;;;14.30;99.90;;;;;;5092154;28;20187;-66
2023/07/27 03:26:12;;;;;;;0.00;0.00;;;14.30;99.90;;;;;;5091665;28;20530;-66
2023/07/27 03:28:38;;;;;;;0.00;0.00;;;14.30;99.90;;;;;;5090961;28;20223;-66
2023/07/27 03:31:19;;;;;;;0.00;0.00;;;14.30;99.90;;;;;;5090030;28;20233;-66
2023/07/27 03:33:45;;;;;;;0.00;0.00;;;14.30;99.90;;;;;;5091670;28;20311;-69
2023/07/27 03:36:11;;;;;;;0.00;0.00;;;14.30;99.90;;;;;;5092669;28;20270;-66
2023/07/27 03:38:36;;;;;;;0.00;0.00;;;14.30;99.90;;;;;;5091489;28;20260;-66
2023/07/27 03:41:02;;;;;;;0.00;0.00;;;14.40;99.90;;;;;;5091168;28;20767;-66
2023/07/27 03:43:28;;;;;;;0.00;0.00;;;14.40;99.90;;;;;;5091131;28;20500;-65
2023/07/27 03:45:53;;;;;;;0.10;0.10;;;14.40;99.90;;;;;;5091169;28;20626;-66
2023/07/27 03:48:19;;;;;;;0.00;0.00;;;14.40;99.90;;;;;;5092126;28;20517;-66
2023/07/27 03:50:44;;;;;;;0.00;0.00;;;14.40;99.90;;;;;;5091557;28;20624;-66
2023/07/27 03:53:10;;;;;;;0.00;0.00;;;14.30;99.90;;;;;;5091572;28;20195;-63
2023/07/27 03:55:36;;;;;;;0.00;0.00;;;14.40;99.90;;;;;;5090010;28;20188;-64
2023/07/27 03:58:02;;;;;;;0.00;0.00;;;14.30;99.90;;;;;;5091384;28;20763;-64
2023/07/27 04:00:27;;;;;;;0.00;0.00;;;14.40;99.90;;;;;;5089473;28;20198;-64
2023/07/27 04:02:53;;;;;;;0.00;0.00;;;14.30;99.90;;;;;;5090743;28;20241;-64
2023/07/27 04:05:18;;;;;;;0.00;0.00;;;14.30;99.90;;;;;;5090773;28;20175;-64
2023/07/27 04:07:44;;;;;;;0.00;0.00;;;14.40;99.90;;;;;;5091255;28;21384;-65
2023/07/27 04:10:09;;;;;;;0.00;0.00;;;14.40;99.90;;;;;;5087988;28;20187;-65
2023/07/27 04:12:35;;;;;;;0.00;0.00;;;14.40;99.90;;;;;;5090816;28;20260;-64
2023/07/27 04:15:00;;;;;;;0.00;0.00;;;14.50;99.90;;;;;;5089359;28;20216;-65
2023/07/27 04:17:26;;;;;;;0.00;0.00;;;14.50;99.90;;;;;;5090195;28;20183;-65
2023/07/27 04:19:51;;;;;;;0.00;0.00;;;14.50;99.90;;;;;;5090213;28;20619;-65
2023/07/27 04:22:17;;;;;;;0.00;0.00;;;14.50;99.90;;;;;;5090406;28;20191;-65
2023/07/27 04:24:44;;;;;;;0.00;0.00;;;14.60;99.90;;;;;;5090590;28;20169;-65
2023/07/27 04:27:11;;;;;;;0.00;0.00;;;14.60;99.90;;;;;;5090619;28;20178;-65
2023/07/27 04:29:37;;;;;;;0.00;0.00;;;14.60;99.90;;;;;;5090600;28;20184;-65
2023/07/27 04:32:03;;;;;;;0.00;0.00;;;14.70;99.90;;;;;;5090929;28;20176;-65
2023/07/27 04:34:28;;;;;;;0.00;0.00;;;14.70;99.90;;;;;;5090686;28;20273;-65
2023/07/27 04:36:54;;;;;;;0.00;0.00;;;14.70;99.90;;;;;;5090802;28;20217;-65
2023/07/27 04:39:19;;;;;;;0.00;0.00;;;14.70;99.90;;;;;;5090586;28;20643;-65
2023/07/27 04:41:45;;;;;;;0.00;0.00;;;14.80;99.90;;;;;;5090810;28;20512;-65
2023/07/27 04:44:10;;;;;;;0.03;0.03;;;14.90;99.90;;;;;;5090633;28;20255;-65
2023/07/27 04:46:36;;;;;;;0.00;0.00;;;14.90;99.90;;;;;;5090672;28;20251;-65
2023/07/27 04:49:02;;;;;;;0.00;0.00;;;15.00;99.90;;;;;;5090713;28;20215;-65
2023/07/27 04:51:27;;;;;;;0.00;0.00;;;15.00;99.90;;;;;;5090525;28;20172;-65
2023/07/27 04:53:53;;;;;;;0.00;0.00;;;15.10;99.90;;;;;;5090724;28;20226;-65
2023/07/27 04:56:18;;;;;;;0.00;0.00;;;15.20;99.90;;;;;;5091578;28;20172;-65
2023/07/27 04:58:44;;;;;;;0.00;0.00;;;15.20;99.90;;;;;;5093424;28;20168;-65
2023/07/27 05:01:09;;;;;;;0.00;0.00;;;15.30;99.90;;;;;;5094495;28;20176;-65
2023/07/27 05:03:35;;;;;;;0.00;0.00;;;15.30;99.90;;;;;;5093382;28;20254;-65
2023/07/27 05:06:00;;;;;;;0.00;0.00;;;15.40;99.90;;;;;;5094505;28;20179;-65
2023/07/27 05:08:26;;;;;;;0.00;0.00;;;15.40;99.90;;;;;;5094613;28;20180;-65
2023/07/27 05:10:51;;;;;;;0.00;0.00;;;15.50;99.90;;;;;;5092299;28;20222;-65
2023/07/27 05:13:17;;;;;;;0.00;0.00;;;15.50;99.90;;;;;;5089546;28;20211;-65
2023/07/27 05:15:44;;;;;;;0.00;0.00;;;15.50;99.90;;;;;;5074006;28;20187;-65
2023/07/27 05:18:09;;;;;;;0.00;0.00;;;15.50;99.90;;;;;;5091338;28;20176;-65
2023/07/27 05:20:35;;;;;;;0.00;0.00;;;15.60;99.90;;;;;;5093183;28;20435;-64
2023/07/27 05:23:00;;;;;;;0.00;0.00;;;15.60;99.90;;;;;;5094264;28;20172;-64
2023/07/27 05:25:26;;;;;;;0.00;0.00;;;15.60;99.90;;;;;;5094027;28;20173;-64
2023/07/27 05:27:51;;;;;;;0.00;0.00;;;15.60;99.90;;;;;;5093852;28;20226;-65
2023/07/27 05:30:17;;;;;;;0.00;0.00;;;15.60;99.90;;;;;;5094100;28;20229;-65
2023/07/27 05:32:43;;;;;;;0.00;0.00;;;15.60;99.90;;;;;;5094291;28;20204;-64
2023/07/27 05:35:08;;;;;;;0.00;0.00;;;15.70;99.90;;;;;;5093876;28;20204;-65
2023/07/27 05:37:34;;;;;;;0.00;0.00;;;15.70;99.90;;;;;;5093890;28;20225;-65
2023/07/27 05:39:59;;;;;;;0.00;0.00;;;15.70;99.90;;;;;;5093742;28;20188;-65
2023/07/27 05:42:25;;;;;;;0.00;0.00;;;15.80;99.90;;;;;;5093902;28;20172;-65
2023/07/27 05:44:50;;;;;;;0.10;0.10;;;15.90;99.90;;;;;;5093875;28;20249;-65
2023/07/27 05:47:17;;;;;;;0.00;0.00;;;15.90;99.90;;;;;;5093905;28;20184;-65
2023/07/27 05:49:42;;;;;;;0.00;0.00;;;16.00;99.90;;;;;;5093780;28;20203;-65
2023/07/27 05:52:08;;;;;;;0.00;0.00;;;16.10;99.90;;;;;;5092384;28;20633;-65
2023/07/27 05:54:33;;;;;;;0.00;0.00;;;16.20;99.90;;;;;;5093547;28;20211;-65
2023/07/27 05:56:59;;;;;;;0.00;0.00;;;16.30;99.90;;;;;;5093566;28;20241;-65
2023/07/27 05:59:25;;;;;;;0.00;0.00;;;16.40;99.90;;;;;;5093340;28;20172;-65
2023/07/27 06:01:50;;;;;;;0.10;0.08;;;16.60;99.90;;;;;;5093592;28;20219;-65
2023/07/27 06:04:16;;;;;;;0.00;0.00;;;16.70;99.90;;;;;;5093443;28;20181;-65
2023/07/27 06:06:45;;;;;;;0.00;0.00;;;16.80;99.90;;;;;;5092250;28;20164;-65
2023/07/27 06:09:10;;;;;;;0.00;0.00;;;16.90;99.90;;;;;;5092787;28;20527;-65
2023/07/27 06:11:36;;;;;;;0.00;0.00;;;17.00;99.90;;;;;;5093521;28;20297;-63
2023/07/27 06:14:01;;;;;;;0.00;0.00;;;17.10;99.90;;;;;;5093244;28;20253;-63
2023/07/27 06:16:27;;;;;;;0.00;0.00;;;17.30;99.90;;;;;;5091995;28;20186;-63
2023/07/27 06:18:52;;;;;;;0.00;0.00;;;17.50;99.90;;;;;;5086053;28;20566;-63
2023/07/27 06:21:18;;;;;;;0.00;0.00;;;17.70;99.90;;;;;;5086479;28;20184;-63
2023/07/27 06:23:43;;;;;;;0.00;0.00;;;17.80;99.90;;;;;;5072954;28;20505;-63
2023/07/27 06:26:09;;;;;;;0.00;0.00;;;18.00;99.90;;;;;;5089599;28;20721;-63
2023/07/27 06:28:35;;;;;;;0.00;0.00;;;18.20;99.90;;;;;;5091627;28;20223;-63
2023/07/27 06:31:04;;;;;;;0.00;0.00;;;18.40;99.90;;;;;;5072903;28;20248;-63
2023/07/27 06:33:29;;;;;;;0.00;0.00;;;18.60;99.90;;;;;;5072683;28;20258;-63
2023/07/27 06:35:55;;;;;;;0.57;0.57;;;18.70;99.90;;;;;;5072699;28;20208;-64
2023/07/27 06:38:20;;;;;;;0.00;0.00;;;18.80;99.90;;;;;;5072307;28;20271;-64
2023/07/27 06:40:46;;;;;;;0.00;0.00;;;18.90;99.90;;;;;;5088258;28;20195;-64
2023/07/27 06:43:12;;;;;;;0.00;0.00;;;18.90;99.90;;;;;;5092759;28;20234;-63
2023/07/27 06:45:38;;;;;;;0.00;0.00;;;18.80;99.90;;;;;;5092729;28;20172;-63
2023/07/27 06:48:03;;;;;;;0.00;0.00;;;18.80;99.90;;;;;;5092770;28;20233;-64
2023/07/27 06:50:29;;;;;;;0.00;0.00;;;18.80;99.90;;;;;;5092637;28;20263;-64
2023/07/27 06:52:55;;;;;;;0.00;0.00;;;18.80;99.90;;;;;;5092664;28;20252;-64
2023/07/27 06:55:20;;;;;;;0.00;0.00;;;18.90;99.90;;;;;;5092334;28;20223;-64
2023/07/27 06:57:46;;;;;;;0.00;0.00;;;18.90;99.90;;;;;;5092592;28;20183;-65
2023/07/27 07:00:13;;;;;;;0.00;0.00;;;18.90;99.90;;;;;;5092536;28;20171;-65
2023/07/27 07:02:38;;;;;;;0.00;0.00;;;18.90;99.90;;;;;;5092403;28;20181;-65
2023/07/27 07:05:04;;;;;;;0.00;0.00;;;18.80;99.90;;;;;;5092399;28;20172;-65
2023/07/27 07:07:30;;;;;;;0.00;0.00;;;18.70;99.90;;;;;;5092603;28;20172;-65
2023/07/27 07:09:56;;;;;;;0.00;0.00;;;18.50;99.90;;;;;;5092737;28;20179;-65
2023/07/27 07:12:21;;;;;;;0.00;0.00;;;18.40;99.90;;;;;;5092570;28;20650;-64
2023/07/27 07:14:47;;;;;;;0.10;0.10;;;18.40;99.90;;;;;;5092534;28;20826;-65
2023/07/27 07:17:13;;;;;;;0.00;0.00;;;18.30;99.90;;;;;;5092498;28;20168;-65
2023/07/27 07:19:38;;;;;;;0.00;0.00;;;18.30;99.90;;;;;;5091521;28;20268;-65
2023/07/27 07:22:04;;;;;;;0.00;0.00;;;18.30;99.90;;;;;;5092328;28;20176;-64
2023/07/27 07:24:30;;;;;;;0.00;0.00;;;18.30;99.90;;;;;;5092362;28;20175;-64
2023/07/27 07:26:55;;;;;;;0.00;0.00;;;18.30;99.90;;;;;;5092271;28;20183;-65
2023/07/27 07:29:21;;;;;;;0.00;0.00;;;18.30;99.90;;;;;;5085544;28;20291;-64
2023/07/27 07:31:47;;;;;;;0.00;0.00;;;18.20;99.90;;;;;;5072150;28;20214;-64
2023/07/27 07:34:13;;;;;;;0.00;0.00;;;18.20;99.90;;;;;;5071866;28;20209;-65
2023/07/27 07:36:39;;;;;;;0.00;0.00;;;18.20;99.90;;;;;;5071929;28;20582;-64
2023/07/27 07:39:04;;;;;;;0.00;0.00;;;18.10;99.90;;;;;;5073090;28;20172;-64
2023/07/27 07:41:30;;;;;;;0.00;0.00;;;18.10;99.90;;;;;;5092078;28;20234;-64
2023/07/27 07:43:55;;;;;;;0.30;0.30;;;18.10;99.90;;;;;;5090859;28;20537;-64
2023/07/27 07:46:21;;;;;;;0.00;0.00;;;18.10;99.90;;;;;;5091658;28;20697;-64
2023/07/27 07:48:47;;;;;;;0.00;0.00;;;18.10;99.90;;;;;;5091912;28;20172;-64
2023/07/27 07:51:14;;;;;;;0.00;0.00;;;18.10;99.90;;;;;;5091862;28;20168;-64
2023/07/27 07:53:40;;;;;;;0.00;0.00;;;18.20;99.90;;;;;;5091742;28;20207;-64
2023/07/27 07:56:12;;;;;;;0.00;0.00;;;18.30;99.90;;;;;;5091843;28;20555;-64
2023/07/27 07:58:38;;;;;;;0.00;0.00;;;18.30;99.90;;;;;;5091827;28;20627;-64
2023/07/27 08:01:03;;;;;;;0.00;0.00;;;18.30;99.90;;;;;;5091561;28;20172;-64
2023/07/27 08:03:29;;;;;;;0.00;0.00;;;18.20;99.90;;;;;;5091610;28;20195;-64
2023/07/27 08:05:54;;;;;;;0.00;0.00;;;18.20;99.90;;;;;;5091761;28;20527;-64
2023/07/27 08:08:20;;;;;;;0.00;0.00;;;18.20;99.90;;;;;;5091472;28;20171;-64
2023/07/27 08:10:45;;;;;;;0.00;0.00;;;18.10;99.90;;;;;;5091651;28;20519;-64
2023/07/27 08:13:11;;;;;;;0.00;0.00;;;18.20;99.90;;;;;;5091445;28;20289;-64
2023/07/27 08:15:36;;;;;;;0.00;0.00;;;18.20;99.90;;;;;;5091552;28;20658;-64
2023/07/27 08:18:02;;;;;;;0.00;0.00;;;18.30;99.90;;;;;;5090002;28;20181;-64
2023/07/27 08:20:27;;;;;;;0.03;0.03;;;18.40;99.90;;;;;;5091301;28;20175;-64
2023/07/27 08:22:53;;;;;;;0.00;0.00;;;18.40;99.90;;;;;;5090238;28;20176;-64
2023/07/27 08:25:19;;;;;;;0.00;0.00;;;18.40;99.90;;;;;;5091167;28;20179;-64
2023/07/27 08:27:44;;;;;;;0.00;0.00;;;18.30;99.90;;;;;;5091259;28;20571;-64
2023/07/27 08:30:11;;;;;;;0.00;0.00;;;18.30;99.90;;;;;;5077991;28;20682;-65
2023/07/27 08:32:37;;;;;;;0.00;0.00;;;18.30;99.90;;;;;;5070975;28;20181;-64
2023/07/27 08:35:03;;;;;;;0.00;0.00;;;18.20;99.90;;;;;;5070772;28;20220;-65
2023/07/27 08:37:28;;;;;;;0.00;0.00;;;18.20;99.90;;;;;;5071048;28;20180;-64
2023/07/27 08:39:54;;;;;;;0.00;0.00;;;18.20;99.90;;;;;;5079272;28;20172;-64
2023/07/27 08:42:20;;;;;;;0.00;0.00;;;18.20;99.90;;;;;;5091002;28;20172;-64
2023/07/27 08:44:46;;;;;;;0.00;0.00;;;18.30;99.90;;;;;;5089901;28;20180;-64
2023/07/27 08:47:11;;;;;;;0.03;0.03;;;18.30;99.90;;;;;;5091094;28;20809;-64
2023/07/27 08:49:38;;;;;;;0.00;0.00;;;18.30;99.90;;;;;;5091174;28;20263;-65
2023/07/27 08:52:04;;;;;;;0.00;0.00;;;18.40;99.90;;;;;;5089831;28;20271;-65
2023/07/27 08:54:30;;;;;;;0.00;0.00;;;18.40;99.90;;;;;;5089776;28;20223;-65
2023/07/27 08:56:55;;;;;;;0.00;0.00;;;18.50;99.90;;;;;;5091208;28;20180;-65
2023/07/27 08:59:24;;;;;;;0.00;0.00;;;18.60;99.90;;;;;;5090939;28;20172;-65
2023/07/27 09:01:52;;;;;;;0.00;0.00;;;18.70;99.90;;;;;;5091006;28;20214;-64
2023/07/27 09:04:18;;;;;;;0.00;0.00;;;18.70;99.90;;;;;;5091000;28;20655;-64
2023/07/27 09:06:46;;;;;;;0.00;0.00;;;18.80;99.90;;;;;;5090909;28;20168;-64
2023/07/27 09:09:17;;;;;;;0.00;0.00;;;18.90;99.90;;;;;;5090898;28;20208;-64
2023/07/27 09:11:44;;;;;;;0.00;0.00;;;18.90;99.90;;;;;;5090681;28;20662;-64
2023/07/27 09:14:10;;;;;;;0.00;0.00;;;18.90;99.90;;;;;;5090887;28;20645;-64
2023/07/27 09:16:36;;;;;;;0.00;0.00;;;18.90;99.90;;;;;;5090843;28;20169;-64
2023/07/27 09:19:03;;;;;;;0.00;0.00;;;18.90;99.90;;;;;;5090832;28;20177;-64
2023/07/27 09:21:43;;;;;;;0.00;0.00;;;18.90;99.90;;;;;;5090942;28;20568;-64
2023/07/27 09:24:13;;;;;;;0.00;0.00;;;18.80;99.90;;;;;;5090831;28;20269;-64
2023/07/27 09:26:47;;;;;;;0.00;0.00;;;18.70;99.90;;;;;;5090776;28;20206;-64
2023/07/27 09:29:21;;;;;;;0.00;0.00;;;18.60;99.90;;;;;;5085036;28;20676;-64
2023/07/27 09:31:49;;;;;;;0.00;0.00;;;18.50;99.90;;;;;;5070708;28;20267;-64
2023/07/27 09:34:19;;;;;;;0.00;0.00;;;18.50;99.90;;;;;;5070465;28;20220;-64
2023/07/27 09:36:45;;;;;;;0.00;0.00;;;18.50;99.90;;;;;;5070583;28;20637;-64
2023/07/27 09:39:11;;;;;;;0.00;0.00;;;18.30;99.90;;;;;;5072600;28;20541;-64
2023/07/27 09:41:38;;;;;;;0.00;0.00;;;18.30;99.90;;;;;;5090730;28;20172;-64
2023/07/27 09:44:04;;;;;;;0.00;0.00;;;18.30;99.90;;;;;;5092689;28;20251;-64
2023/07/27 09:46:30;;;;;;;0.00;0.00;;;18.30;99.90;;;;;;5094248;28;20172;-64
2023/07/27 09:48:59;;;;;;;0.08;0.08;;;18.40;99.90;;;;;;5093937;28;20175;-65
2023/07/27 09:51:27;;;;;;;0.00;0.00;;;18.50;99.90;;;;;;5094059;28;20759;-64
2023/07/27 09:53:54;;;;;;;0.00;0.00;;;18.70;99.90;;;;;;5094223;28;20207;-65
2023/07/27 09:56:20;;;;;;;0.00;0.00;;;18.90;99.90;;;;;;5093802;28;20188;-65
2023/07/27 09:58:47;;;;;;;0.00;0.00;;;19.20;99.90;;;;;;5092812;28;20546;-65
2023/07/27 10:01:12;;;;;;;0.08;0.08;;;19.40;99.90;;;;;;5093963;28;20169;-65
2023/07/27 10:03:38;;;;;;;0.00;0.00;;;19.40;99.90;;;;;;5094009;28;20396;-65
2023/07/27 10:06:05;;;;;;;0.00;0.00;;;19.50;99.90;;;;;;5093918;28;20581;-65
2023/07/27 10:08:33;;;;;;;0.00;0.00;;;19.50;99.90;;;;;;5093796;28;20174;-65
2023/07/27 10:11:00;;;;;;;0.00;0.00;;;19.60;99.90;;;;;;5093516;28;20761;-65
2023/07/27 10:13:26;;;;;;;0.00;0.00;;;19.50;99.90;;;;;;5093798;28;20509;-65
2023/07/27 10:15:52;;;;;;;0.00;0.00;;;19.50;99.90;;;;;;5093685;28;20263;-65
2023/07/27 10:18:26;;;;;;;0.00;0.00;;;19.30;99.90;;;;;;5093697;28;20271;-65
2023/07/27 10:20:54;;;;;;;0.00;0.00;;;19.20;99.90;;;;;;5093719;28;20526;-65
2023/07/27 10:23:27;;;;;;;0.00;0.00;;;19.10;99.90;;;;;;5092200;28;20191;-64
2023/07/27 10:25:55;;;;;;;0.00;0.00;;;19.00;99.90;;;;;;5093604;28;20183;-64
2023/07/27 10:28:50;;;;;;;0.00;0.00;;;19.00;99.90;;;;;;5093177;28;20230;-65
2023/07/27 10:31:23;;;;;;;0.00;0.00;;;19.00;99.90;;;;;;5068346;28;20192;-64
2023/07/27 10:34:01;;;;;;;0.00;0.00;;;19.10;99.90;;;;;;5073210;28;20204;-64
2023/07/27 10:37:03;;;;;;;0.00;0.00;;;19.30;99.90;;;;;;5073213;28;20177;-65
2023/07/27 10:39:41;;;;;;;0.00;0.00;;;19.50;99.90;;;;;;5035449;28;20677;-65
2023/07/27 10:42:08;;;;;;;0.00;0.00;;;19.70;99.90;;;;;;5088027;28;20176;-64
2023/07/27 10:44:42;;;;;;;0.00;0.00;;;19.80;99.90;;;;;;5093226;28;20168;-65
2023/07/27 10:47:10;;;;;;;0.00;0.00;;;20.00;99.90;;;;;;5093145;28;20190;-65
2023/07/27 10:49:40;;;;;;;0.00;0.00;;;20.20;99.90;;;;;;5093198;28;20543;-65
2023/07/27 10:52:07;;;;;;;0.00;0.00;;;20.40;99.90;;;;;;5093112;28;20165;-65
2023/07/27 10:54:38;;;;;;;0.00;0.00;;;20.60;99.90;;;;;;5092874;28;20214;-65
2023/07/27 10:57:06;;;;;;;0.00;0.00;;;20.80;99.90;;;;;;5093031;28;20559;-65
2023/07/27 10:59:37;;;;;;;0.10;0.10;;;21.00;99.90;;;;;;5092968;28;20175;-65
2023/07/27 11:02:04;;;;;;;0.00;0.00;;;21.10;99.90;;;;;;5092893;28;20263;-65
2023/07/27 11:04:33;;;;;;;0.00;0.00;;;21.20;99.90;;;;;;5092837;28;20176;-65
2023/07/27 11:06:59;;;;;;;0.00;0.00;;;21.30;99.90;;;;;;5092604;28;20192;-65
2023/07/27 11:09:24;;;;;;;0.00;0.00;;;21.40;99.90;;;;;;5092599;28;20705;-65
2023/07/27 11:11:51;;;;;;;0.00;0.00;;;21.40;99.90;;;;;;5092589;28;20168;-66
2023/07/27 11:14:16;;;;;;;0.00;0.00;;;21.40;99.90;;;;;;5092341;28;20216;-65
2023/07/27 11:16:42;;;;;;;0.00;0.00;;;21.40;99.90;;;;;;5092399;28;20503;-65
2023/07/27 11:19:09;;;;;;;0.00;0.00;;;21.30;99.90;;;;;;5092741;28;20169;-65
2023/07/27 11:21:39;;;;;;;0.00;0.00;;;21.20;99.90;;;;;;5092622;28;20185;-65
2023/07/27 11:24:07;;;;;;;0.00;0.00;;;20.90;99.90;;;;;;5091295;28;20168;-65
2023/07/27 11:26:32;;;;;;;0.00;0.00;;;20.70;99.90;;;;;;5092350;28;20659;-65
2023/07/27 11:29:00;;;;;;;0.00;0.00;;;20.60;99.90;;;;;;5091980;28;20245;-65
2023/07/27 11:31:26;;;;;;;0.00;0.00;;;20.60;99.90;;;;;;5092258;28;20176;-65
2023/07/27 11:33:59;;;;;;;0.00;0.00;;;20.60;99.90;;;;;;5092266;28;20207;-65
2023/07/27 11:36:33;;;;;;;0.00;0.00;;;20.60;99.90;;;;;;5092187;28;20168;-65
2023/07/27 11:39:00;;;;;;;0.00;0.00;;;20.60;99.90;;;;;;5092136;28;20231;-65
2023/07/27 11:41:27;;;;;;;0.00;0.00;;;20.60;99.90;;;;;;5091879;28;20172;-65
2023/07/27 11:43:55;;;;;;;0.00;0.00;;;20.60;99.90;;;;;;5092095;28;20524;-65
2023/07/27 11:46:21;;;;;;;0.00;0.00;;;20.60;99.90;;;;;;5091669;28;21129;-64
2023/07/27 11:48:50;;;;;;;0.00;0.00;;;20.70;99.90;;;;;;5091985;28;20179;-65
2023/07/27 11:51:16;;;;;;;0.00;0.00;;;20.60;99.90;;;;;;5091663;28;20171;-65
2023/07/27 11:53:45;;;;;;;0.00;0.00;;;20.40;99.90;;;;;;5091904;28;20199;-65
2023/07/27 11:56:11;;;;;;;0.00;0.00;;;20.30;99.90;;;;;;5091578;28;20184;-65
2023/07/27 11:58:37;;;;;;;0.00;0.00;;;20.10;99.90;;;;;;5092048;28;20172;-64
2023/07/27 12:01:03;;;;;;;0.00;0.00;;;20.00;99.90;;;;;;5091574;28;20183;-65
2023/07/27 12:03:31;;;;;;;0.00;0.00;;;19.90;99.90;;;;;;5091672;28;20556;-65
2023/07/27 12:05:59;;;;;;;0.00;0.00;;;19.80;99.90;;;;;;5091217;28;20225;-65
2023/07/27 12:08:25;;;;;;;0.00;0.00;;;19.80;99.90;;;;;;5091510;28;20176;-65
2023/07/27 12:10:51;;;;;;;0.00;0.00;;;19.70;99.90;;;;;;5091793;28;20172;-65
2023/07/27 12:13:23;;;;;;;0.00;0.00;;;19.70;99.90;;;;;;5091519;28;20195;-65
2023/07/27 12:16:03;;;;;;;0.00;0.00;;;19.70;99.90;;;;;;5091643;28;20270;-64
2023/07/27 12:18:30;;;;;;;0.00;0.00;;;19.60;99.90;;;;;;5091469;28;20180;-64
2023/07/27 12:20:56;;;;;;;0.00;0.00;;;19.50;99.90;;;;;;5091554;28;20182;-65
2023/07/27 12:23:23;;;;;;;0.00;0.00;;;19.50;99.90;;;;;;5091267;28;20229;-65
2023/07/27 12:25:49;;;;;;;0.00;0.00;;;19.50;99.90;;;;;;5091488;28;20670;-65
2023/07/27 12:28:15;;;;;;;0.00;0.00;;;19.60;99.90;;;;;;5088570;28;20679;-65
2023/07/27 12:30:40;;;;;;;0.00;0.00;;;19.60;99.90;;;;;;5088898;28;20180;-65
2023/07/27 12:33:06;;;;;;;0.00;0.00;;;19.60;99.90;;;;;;5088386;28;20191;-65
2023/07/27 12:35:32;;;;;;;0.00;0.00;;;19.60;99.90;;;;;;5071077;28;20227;-66
2023/07/27 12:38:00;;;;;;;0.10;0.10;;;19.70;99.90;;;;;;5091090;28;20635;-65
2023/07/27 12:40:26;;;;;;;0.00;0.00;;;19.80;99.90;;;;;;5090919;28;20534;-65
2023/07/27 12:42:52;;;;;;;0.00;0.00;;;20.00;99.90;;;;;;5091279;28;20164;-64
2023/07/27 12:45:19;;;;;;;0.00;0.00;;;20.00;99.90;;;;;;5091064;28;20277;-65
2023/07/27 12:47:48;;;;;;;0.00;0.00;;;20.30;99.90;;;;;;5091107;28;20180;-65